2CL1 weather

Canyon Creek Heliport
Morgan Hill, California, United States

Public forecast

Using degrees Fahrenheit for public forecast. Weather courtesy of forecast.io.

Closest aviation weather report (METAR) to Canyon Creek Heliport

Closest report is San Martin Airport, 9.7 nm (18.0 km) E. Retrieved UTC (0 seconds ago):

Closest aviation forecast (TAF) to Canyon Creek Heliport

Closest forecast is Norman Y. Mineta San Jose International Airport, 16.5 nm (30.6 km) NNW. Retrieved 2020-08-04 00:42 UTC (4 hours ago):

TAF KSJC 032339Z 0400/0424 34016KT P6SM FEW050 SCT080 FM040400 32005KT P6SM SKC FM041000 15005KT P6SM FEW015 FM042000 30013KT P6SM SKC